Time;durP1;ratioP1;P1;durP2;ratioP2;P2;SDS_P1;SDS_P2;PMS_P1;PMS_P2;Temp;Humidity;BMP_temperature;BMP_pressure;BME280_temperature;BME280_humidity;BME280_pressure;Samples;Min_cycle;Max_cycle;Signal;HPM_P1;HPM_P2
2023/01/11 00:00:36;;;;;;;13.02;8.32;;;;;;;;;;5032389;28;20524;-77
2023/01/11 00:03:03;;;;;;;12.02;8.93;;;;;;;;;;5015887;28;20041;-77
2023/01/11 00:05:29;;;;;;;12.02;8.50;;;;;;;;;;5032171;28;20098;-77
2023/01/11 00:07:55;;;;;;;12.45;8.02;;;;;;;;;;5033861;28;20446;-77
2023/01/11 00:10:21;;;;;;;11.57;8.65;;;;;;;;;;5035143;28;20160;-76
2023/01/11 00:12:47;;;;;;;10.93;8.40;;;;;;;;;;5045098;28;20045;-77
2023/01/11 00:15:13;;;;;;;11.57;7.93;;;;;;;;;;5034809;28;20436;-77
2023/01/11 00:17:40;;;;;;;10.60;8.15;;;;;;;;;;5032861;28;20128;-77
2023/01/11 00:20:07;;;;;;;10.65;8.15;;;;;;;;;;5021572;28;20048;-77
2023/01/11 00:22:33;;;;;;;10.65;7.10;;;;;;;;;;5016398;28;20045;-76
2023/01/11 00:24:59;;;;;;;10.02;6.55;;;;;;;;;;5053416;28;20067;-77
2023/01/11 00:27:25;;;;;;;11.32;7.78;;;;;;;;;;5035882;28;20458;-77
2023/01/11 00:29:51;;;;;;;11.38;7.65;;;;;;;;;;5053343;28;20134;-77
2023/01/11 00:32:17;;;;;;;10.23;7.97;;;;;;;;;;5053404;28;20106;-77
2023/01/11 00:34:43;;;;;;;10.20;8.05;;;;;;;;;;5018633;28;20049;-77
2023/01/11 00:37:09;;;;;;;11.38;7.95;;;;;;;;;;5053200;28;20037;-77
2023/01/11 00:39:36;;;;;;;11.73;8.05;;;;;;;;;;5035676;28;20108;-77
2023/01/11 00:50:15;;;;;;;12.02;8.63;;;;;;;;;;5033521;28;20041;-77
2023/01/11 00:52:41;;;;;;;10.93;8.05;;;;;;;;;;5018326;28;20041;-77
2023/01/11 00:55:08;;;;;;;10.00;7.50;;;;;;;;;;5050940;28;20075;-77
2023/01/11 00:57:34;;;;;;;11.02;8.45;;;;;;;;;;5034745;28;20048;-77
2023/01/11 01:00:00;;;;;;;10.48;7.30;;;;;;;;;;5034931;28;20457;-77
2023/01/11 01:02:26;;;;;;;10.27;7.32;;;;;;;;;;5051197;28;20087;-76
2023/01/11 01:04:52;;;;;;;9.60;7.10;;;;;;;;;;5049683;28;20473;-76
2023/01/11 01:07:18;;;;;;;10.35;7.80;;;;;;;;;;5018024;28;20048;-77
2023/01/11 01:09:44;;;;;;;12.05;8.00;;;;;;;;;;5050866;28;20041;-77
2023/01/11 01:14:24;;;;;;;10.77;7.72;;;;;;;;;;5039150;28;20048;-76
2023/01/11 01:14:56;;;;;;;9.63;7.50;;;;;;;;;;5034446;28;20493;-76
2023/01/11 01:17:22;;;;;;;7.32;5.05;;;;;;;;;;5014018;28;20045;-76
2023/01/11 01:19:48;;;;;;;9.77;7.50;;;;;;;;;;5036747;28;20041;-76
2023/01/11 01:22:14;;;;;;;7.88;5.43;;;;;;;;;;5050533;28;20068;-76
2023/01/11 01:24:40;;;;;;;9.43;7.43;;;;;;;;;;5052024;28;20505;-76
2023/01/11 01:27:06;;;;;;;8.32;6.15;;;;;;;;;;5052370;28;20053;-76
2023/01/11 01:29:32;;;;;;;8.02;5.80;;;;;;;;;;5052474;28;20046;-76
2023/01/11 01:31:58;;;;;;;7.53;5.53;;;;;;;;;;5034687;28;20091;-76
2023/01/11 01:34:24;;;;;;;7.68;5.53;;;;;;;;;;5052437;28;20086;-76
2023/01/11 01:36:50;;;;;;;5.72;4.13;;;;;;;;;;5052304;28;20044;-76
2023/01/11 01:39:17;;;;;;;7.65;4.68;;;;;;;;;;5034350;28;20080;-76
2023/01/11 01:41:43;;;;;;;5.63;4.13;;;;;;;;;;5052456;28;20041;-76
2023/01/11 01:44:29;;;;;;;5.75;3.97;;;;;;;;;;5052083;28;20048;-76
2023/01/11 01:46:55;;;;;;;;;;;;;;;;;;5024787;28;20398;-76
2023/01/11 01:49:24;;;;;;;6.07;4.40;;;;;;;;;;5034318;28;19927;-76
2023/01/11 01:51:56;;;;;;;6.00;3.80;;;;;;;;;;5052304;28;20079;-76
2023/01/11 01:54:25;;;;;;;5.78;3.70;;;;;;;;;;5051851;28;20056;-76
2023/01/11 01:56:54;;;;;;;4.95;3.72;;;;;;;;;;5032808;28;20517;-76
2023/01/11 01:59:21;;;;;;;5.05;3.90;;;;;;;;;;5050721;28;20342;-76
2023/01/11 02:01:47;;;;;;;5.57;3.85;;;;;;;;;;5043570;28;20455;-76
2023/01/11 02:04:22;;;;;;;6.50;3.80;;;;;;;;;;5030053;28;20552;-76
2023/01/11 02:06:49;;;;;;;6.32;3.42;;;;;;;;;;5030890;28;20046;-75
2023/01/11 02:09:36;;;;;;;8.18;3.38;;;;;;;;;;5032864;28;20090;-75
2023/01/11 02:12:03;;;;;;;7.57;3.22;;;;;;;;;;5004085;28;20174;-75
2023/01/11 02:14:30;;;;;;;5.68;3.50;;;;;;;;;;5050228;28;20097;-75
2023/01/11 02:16:56;;;;;;;3.63;2.60;;;;;;;;;;5033216;28;20044;-75
2023/01/11 02:19:37;;;;;;;3.95;2.75;;;;;;;;;;5030204;28;20081;-75
2023/01/11 02:22:14;;;;;;;4.10;3.00;;;;;;;;;;5032413;28;20048;-75
2023/01/11 02:24:56;;;;;;;4.30;3.15;;;;;;;;;;5051847;28;20057;-74
2023/01/11 02:27:41;;;;;;;6.20;3.25;;;;;;;;;;5033888;28;20072;-74
2023/01/11 02:30:20;;;;;;;4.40;3.03;;;;;;;;;;5053729;28;20488;-74
2023/01/11 02:32:46;;;;;;;4.40;2.90;;;;;;;;;;5055636;28;20123;-74
2023/01/11 02:35:17;;;;;;;4.65;2.60;;;;;;;;;;5055436;28;20080;-74
2023/01/11 02:38:05;;;;;;;4.07;2.80;;;;;;;;;;5055280;28;20041;-74
2023/01/11 02:40:37;;;;;;;4.40;3.20;;;;;;;;;;5055497;28;20482;-74
2023/01/11 02:46:05;;;;;;;3.45;2.35;;;;;;;;;;5037239;28;20045;-74
2023/01/11 02:48:43;;;;;;;4.30;2.88;;;;;;;;;;5037684;28;20048;-74
2023/01/11 02:51:16;;;;;;;4.13;2.30;;;;;;;;;;5053975;28;20044;-74
2023/01/11 02:53:42;;;;;;;4.70;2.50;;;;;;;;;;5040548;28;20040;-74
2023/01/11 02:56:13;;;;;;;4.95;3.00;;;;;;;;;;5053849;28;20116;-74
2023/01/11 02:58:41;;;;;;;3.70;2.70;;;;;;;;;;5053482;28;20060;-74
2023/01/11 03:01:07;;;;;;;4.20;2.80;;;;;;;;;;5052955;28;20087;-74
2023/01/11 03:03:33;;;;;;;3.95;2.65;;;;;;;;;;5053942;28;20045;-74
2023/01/11 03:06:02;;;;;;;3.00;2.30;;;;;;;;;;5051032;28;20080;-74
2023/01/11 03:08:31;;;;;;;3.83;2.80;;;;;;;;;;5033553;28;20052;-74
2023/01/11 03:11:10;;;;;;;3.85;2.60;;;;;;;;;;5043671;28;20033;-74
2023/01/11 03:13:45;;;;;;;3.92;2.70;;;;;;;;;;5043883;28;20620;-74
2023/01/11 03:16:32;;;;;;;4.15;2.75;;;;;;;;;;5036840;28;20523;-74
2023/01/11 03:18:58;;;;;;;4.35;2.92;;;;;;;;;;5053680;28;20485;-74
2023/01/11 03:21:41;;;;;;;4.70;2.67;;;;;;;;;;5032142;28;20151;-74
2023/01/11 03:24:23;;;;;;;3.80;2.28;;;;;;;;;;5034831;28;20490;-74
2023/01/11 03:26:54;;;;;;;4.65;2.67;;;;;;;;;;5033259;28;20480;-74
2023/01/11 03:29:23;;;;;;;3.63;2.38;;;;;;;;;;5033137;28;20041;-74
2023/01/11 03:32:08;;;;;;;4.25;2.00;;;;;;;;;;5047468;28;20049;-74
2023/01/11 03:34:50;;;;;;;3.90;2.88;;;;;;;;;;5050728;28;20049;-74
2023/01/11 03:37:20;;;;;;;3.55;2.58;;;;;;;;;;5047518;28;20067;-74
2023/01/11 03:39:51;;;;;;;4.30;2.55;;;;;;;;;;5053952;28;20444;-74
2023/01/11 03:42:20;;;;;;;5.50;3.25;;;;;;;;;;5036496;28;20045;-74
2023/01/11 03:44:49;;;;;;;4.65;3.30;;;;;;;;;;5054286;28;20052;-74
2023/01/11 03:47:17;;;;;;;6.45;3.95;;;;;;;;;;5054130;28;20481;-74
2023/01/11 03:49:52;;;;;;;6.82;3.63;;;;;;;;;;5054190;28;20041;-74
2023/01/11 03:52:21;;;;;;;9.23;4.07;;;;;;;;;;5036135;28;20358;-74
2023/01/11 03:54:47;;;;;;;9.27;4.00;;;;;;;;;;5036006;28;20045;-74
2023/01/11 03:57:16;;;;;;;8.35;3.70;;;;;;;;;;5035924;28;20044;-74
2023/01/11 03:59:42;;;;;;;9.00;4.25;;;;;;;;;;5019567;28;20170;-74
2023/01/11 04:02:16;;;;;;;11.35;4.70;;;;;;;;;;5053818;28;20055;-74
2023/01/11 04:04:42;;;;;;;13.65;4.03;;;;;;;;;;5032114;28;20505;-74
2023/01/11 04:07:08;;;;;;;12.52;4.70;;;;;;;;;;5031574;28;20081;-74
2023/01/11 04:09:34;;;;;;;14.05;5.30;;;;;;;;;;5033239;28;20096;-74
2023/01/11 04:12:00;;;;;;;17.10;5.18;;;;;;;;;;5032792;28;20464;-74
2023/01/11 04:14:26;;;;;;;13.85;3.72;;;;;;;;;;5019256;28;20041;-74
2023/01/11 04:16:52;;;;;;;17.48;4.97;;;;;;;;;;5035192;28;20079;-75
2023/01/11 04:19:18;;;;;;;16.77;5.60;;;;;;;;;;5048013;28;20055;-74
2023/01/11 04:21:44;;;;;;;13.25;4.45;;;;;;;;;;5035249;28;20493;-74
2023/01/11 04:24:12;;;;;;;16.70;5.05;;;;;;;;;;5051263;28;20231;-74
2023/01/11 04:26:38;;;;;;;18.00;5.55;;;;;;;;;;5017806;28;20055;-74
2023/01/11 04:29:04;;;;;;;18.92;6.15;;;;;;;;;;5039148;28;20401;-74
2023/01/11 04:31:30;;;;;;;19.33;6.00;;;;;;;;;;5033590;28;20046;-74
2023/01/11 04:33:56;;;;;;;12.38;3.53;;;;;;;;;;5031973;28;20045;-74
2023/01/11 04:36:22;;;;;;;11.05;2.28;;;;;;;;;;5033352;28;20083;-74
2023/01/11 04:38:48;;;;;;;10.90;2.85;;;;;;;;;;5032087;28;20053;-74
2023/01/11 04:43:59;;;;;;;9.82;2.00;;;;;;;;;;5033374;28;20136;-74
2023/01/11 04:46:25;;;;;;;13.63;2.33;;;;;;;;;;5033242;28;20053;-74
2023/01/11 04:48:51;;;;;;;7.53;1.95;;;;;;;;;;5031684;28;20037;-74
2023/01/11 04:51:17;;;;;;;9.57;1.90;;;;;;;;;;5031408;28;20072;-74
2023/01/11 04:53:43;;;;;;;10.20;2.28;;;;;;;;;;5033322;28;20083;-74
2023/01/11 04:56:10;;;;;;;7.60;2.30;;;;;;;;;;5033128;28;20436;-74
2023/01/11 04:58:37;;;;;;;10.20;2.22;;;;;;;;;;5033100;28;20049;-75
2023/01/11 05:01:17;;;;;;;7.60;2.03;;;;;;;;;;5033180;28;20059;-75
2023/01/11 05:03:44;;;;;;;9.07;2.00;;;;;;;;;;5018411;28;20488;-74
2023/01/11 05:06:10;;;;;;;10.82;2.30;;;;;;;;;;5052869;28;20168;-75
2023/01/11 05:08:36;;;;;;;15.02;2.33;;;;;;;;;;5053033;28;20119;-75
2023/01/11 05:11:04;;;;;;;6.65;1.85;;;;;;;;;;5034928;28;20511;-75
2023/01/11 05:13:42;;;;;;;12.20;2.08;;;;;;;;;;5035101;28;20052;-75
2023/01/11 05:16:08;;;;;;;9.55;2.08;;;;;;;;;;5034970;28;20401;-75
2023/01/11 05:18:35;;;;;;;10.35;2.55;;;;;;;;;;5020536;28;20209;-75
2023/01/11 05:21:01;;;;;;;13.95;2.78;;;;;;;;;;5015321;28;20045;-75
2023/01/11 05:23:27;;;;;;;9.57;2.42;;;;;;;;;;5032591;28;20057;-75
2023/01/11 05:25:53;;;;;;;13.27;3.28;;;;;;;;;;5032829;28;20053;-75
2023/01/11 05:28:19;;;;;;;18.90;3.30;;;;;;;;;;4998723;28;20405;-74
2023/01/11 05:30:50;;;;;;;17.67;3.50;;;;;;;;;;5022451;28;20095;-75
2023/01/11 05:33:16;;;;;;;10.68;2.80;;;;;;;;;;5051428;28;20045;-74
2023/01/11 05:35:42;;;;;;;14.30;2.70;;;;;;;;;;5034858;28;20397;-75
2023/01/11 05:38:08;;;;;;;15.13;3.28;;;;;;;;;;5052350;28;20432;-75
2023/01/11 05:40:34;;;;;;;13.95;2.97;;;;;;;;;;5052647;28;20041;-74
2023/01/11 05:43:00;;;;;;;16.50;3.03;;;;;;;;;;5017841;28;20049;-75
2023/01/11 05:45:30;;;;;;;19.00;3.63;;;;;;;;;;5045582;28;20505;-75
2023/01/11 05:47:57;;;;;;;15.85;3.20;;;;;;;;;;5034102;28;20088;-74
2023/01/11 05:50:23;;;;;;;13.23;3.05;;;;;;;;;;5018224;28;20505;-75
2023/01/11 05:52:49;;;;;;;18.38;3.40;;;;;;;;;;5048937;28;20168;-75
2023/01/11 05:55:15;;;;;;;19.15;3.00;;;;;;;;;;5015014;28;20046;-75
2023/01/11 05:57:42;;;;;;;25.35;3.35;;;;;;;;;;5031015;28;20045;-75
2023/01/11 06:00:08;;;;;;;21.38;3.72;;;;;;;;;;5032510;28;20042;-75
2023/01/11 06:02:35;;;;;;;22.35;4.03;;;;;;;;;;5033213;28;20041;-74
2023/01/11 06:05:01;;;;;;;21.38;3.40;;;;;;;;;;5035116;28;20053;-75
2023/01/11 06:07:27;;;;;;;17.40;3.25;;;;;;;;;;5036946;28;20064;-75
2023/01/11 06:09:53;;;;;;;23.48;3.90;;;;;;;;;;5036121;28;20121;-75
2023/01/11 06:12:19;;;;;;;18.02;3.67;;;;;;;;;;5036069;28;20096;-75
2023/01/11 06:14:45;;;;;;;15.25;3.67;;;;;;;;;;5018369;28;20077;-75
2023/01/11 06:17:11;;;;;;;21.73;3.35;;;;;;;;;;5037581;28;20048;-75
2023/01/11 06:19:37;;;;;;;26.55;3.88;;;;;;;;;;5056090;28;20131;-75
2023/01/11 06:22:03;;;;;;;23.38;4.28;;;;;;;;;;5037723;28;20037;-75
2023/01/11 06:24:29;;;;;;;17.65;3.85;;;;;;;;;;5055489;28;20119;-75
2023/01/11 06:26:55;;;;;;;18.88;3.63;;;;;;;;;;5037508;28;20052;-75
2023/01/11 06:29:21;;;;;;;18.60;2.78;;;;;;;;;;5020048;28;20048;-75
2023/01/11 06:31:47;;;;;;;21.95;4.15;;;;;;;;;;5038020;28;20040;-75
2023/01/11 06:34:13;;;;;;;20.67;3.67;;;;;;;;;;5055573;28;20504;-75
2023/01/11 06:36:39;;;;;;;18.60;3.65;;;;;;;;;;5054476;28;20116;-75
2023/01/11 06:39:05;;;;;;;18.85;3.65;;;;;;;;;;5037331;28;20520;-75
2023/01/11 06:41:31;;;;;;;26.42;4.30;;;;;;;;;;5037671;28;20072;-75
2023/01/11 06:43:57;;;;;;;23.98;3.75;;;;;;;;;;5055194;28;20050;-76
2023/01/11 06:46:23;;;;;;;22.20;4.25;;;;;;;;;;5020716;28;20049;-75
2023/01/11 06:48:49;;;;;;;22.20;3.35;;;;;;;;;;5055524;28;20053;-74
2023/01/11 06:51:16;;;;;;;26.02;4.32;;;;;;;;;;5044501;28;20426;-75
2023/01/11 06:53:42;;;;;;;17.08;3.42;;;;;;;;;;5047679;28;20033;-75
2023/01/11 06:56:11;;;;;;;22.17;4.28;;;;;;;;;;5033497;28;20057;-75
2023/01/11 06:58:38;;;;;;;22.38;4.15;;;;;;;;;;5034916;28;20045;-75
2023/01/11 07:01:04;;;;;;;22.15;3.90;;;;;;;;;;5032757;28;20091;-74
2023/01/11 07:03:30;;;;;;;22.80;3.70;;;;;;;;;;5035098;28;20079;-74
2023/01/11 07:05:57;;;;;;;19.70;3.70;;;;;;;;;;5033448;28;20045;-74
2023/01/11 07:08:23;;;;;;;20.88;3.40;;;;;;;;;;5033477;28;20061;-74
2023/01/11 07:10:50;;;;;;;19.27;3.10;;;;;;;;;;5034993;28;20041;-74
2023/01/11 07:13:16;;;;;;;18.85;3.60;;;;;;;;;;5034805;28;20049;-74
2023/01/11 07:15:42;;;;;;;14.82;3.25;;;;;;;;;;5032870;28;20411;-74
2023/01/11 07:18:10;;;;;;;15.77;2.72;;;;;;;;;;5026328;28;20516;-74
2023/01/11 07:20:36;;;;;;;18.65;3.25;;;;;;;;;;5029502;28;20133;-75
2023/01/11 07:23:02;;;;;;;17.70;2.72;;;;;;;;;;5049277;28;20060;-75
2023/01/11 07:25:29;;;;;;;18.50;3.00;;;;;;;;;;5054449;28;20497;-75
2023/01/11 07:27:59;;;;;;;16.15;3.38;;;;;;;;;;5054237;28;20096;-74
2023/01/11 07:30:26;;;;;;;15.98;3.42;;;;;;;;;;5054106;28;20037;-75
2023/01/11 07:32:52;;;;;;;20.05;3.10;;;;;;;;;;5019631;28;20045;-75
2023/01/11 07:35:18;;;;;;;20.02;3.15;;;;;;;;;;5019132;28;20041;-75
2023/01/11 07:37:44;;;;;;;19.95;3.95;;;;;;;;;;5034614;28;20053;-76
2023/01/11 07:40:10;;;;;;;25.00;3.42;;;;;;;;;;5035832;28;20172;-75
2023/01/11 07:45:24;;;;;;;17.23;3.28;;;;;;;;;;5053594;28;20049;-75
2023/01/11 07:47:53;;;;;;;15.02;3.10;;;;;;;;;;5035218;28;20045;-75
2023/01/11 07:50:19;;;;;;;19.70;3.22;;;;;;;;;;5035675;28;20041;-75
2023/01/11 07:52:48;;;;;;;14.98;2.97;;;;;;;;;;5036142;28;20052;-75
2023/01/11 07:55:15;;;;;;;14.10;3.22;;;;;;;;;;5053924;28;20052;-75
2023/01/11 07:57:41;;;;;;;14.63;3.00;;;;;;;;;;5017027;28;20045;-75
2023/01/11 08:00:07;;;;;;;17.95;3.45;;;;;;;;;;5034609;28;20048;-75
2023/01/11 08:02:33;;;;;;;12.77;2.55;;;;;;;;;;5053943;28;20060;-75
2023/01/11 08:04:59;;;;;;;15.18;3.33;;;;;;;;;;5053632;28;20055;-76
2023/01/11 08:07:25;;;;;;;12.10;3.00;;;;;;;;;;5036119;28;20131;-75
2023/01/11 08:09:51;;;;;;;17.35;3.05;;;;;;;;;;5030961;28;20049;-76
2023/01/11 08:15:02;;;;;;;18.83;2.83;;;;;;;;;;5030353;28;20504;-75
2023/01/11 08:17:28;;;;;;;15.57;3.13;;;;;;;;;;5033075;28;20208;-75
2023/01/11 08:19:54;;;;;;;17.20;3.28;;;;;;;;;;5033973;28;20179;-76
2023/01/11 08:22:21;;;;;;;17.23;2.83;;;;;;;;;;5053046;28;20052;-76
2023/01/11 08:24:47;;;;;;;15.50;2.83;;;;;;;;;;5013840;28;20386;-76
2023/01/11 08:27:13;;;;;;;14.80;2.83;;;;;;;;;;5032208;28;20396;-75
2023/01/11 08:29:42;;;;;;;10.35;2.50;;;;;;;;;;5033567;28;20049;-76
2023/01/11 08:32:08;;;;;;;11.75;2.80;;;;;;;;;;5032690;28;20422;-76
2023/01/11 08:34:34;;;;;;;15.18;3.10;;;;;;;;;;5032874;28;20048;-76
2023/01/11 08:37:01;;;;;;;12.50;2.33;;;;;;;;;;5032561;28;20041;-76
2023/01/11 08:39:30;;;;;;;15.15;3.08;;;;;;;;;;5031854;28;20056;-74
2023/01/11 08:41:57;;;;;;;14.02;2.47;;;;;;;;;;5014666;28;20099;-72
2023/01/11 08:44:23;;;;;;;11.15;2.63;;;;;;;;;;5033216;28;20459;-73
2023/01/11 08:46:49;;;;;;;13.20;2.72;;;;;;;;;;5025543;28;20080;-73
2023/01/11 08:49:15;;;;;;;17.50;2.60;;;;;;;;;;4995871;28;20078;-73
2023/01/11 08:51:41;;;;;;;15.35;2.63;;;;;;;;;;5022222;28;20099;-74
2023/01/11 08:54:10;;;;;;;14.18;3.03;;;;;;;;;;5015044;28;20133;-78
2023/01/11 08:56:36;;;;;;;12.48;2.97;;;;;;;;;;5029338;28;20037;-77
2023/01/11 08:59:03;;;;;;;16.40;2.97;;;;;;;;;;5031184;28;20049;-76
2023/01/11 09:01:29;;;;;;;16.25;3.10;;;;;;;;;;5015076;28;20049;-78
2023/01/11 09:03:55;;;;;;;14.52;2.90;;;;;;;;;;5029761;28;20141;-78
2023/01/11 09:06:22;;;;;;;18.85;3.38;;;;;;;;;;5029279;28;20075;-78
2023/01/11 09:08:48;;;;;;;15.07;3.22;;;;;;;;;;5030903;28;20041;-78
2023/01/11 09:13:59;;;;;;;15.52;2.78;;;;;;;;;;5014564;28;20489;-78
2023/01/11 09:16:25;;;;;;;12.30;2.50;;;;;;;;;;5015011;28;20049;-78
2023/01/11 09:18:51;;;;;;;17.65;3.10;;;;;;;;;;5032626;28;20536;-78
2023/01/11 09:21:18;;;;;;;10.45;2.78;;;;;;;;;;5032065;28;20115;-78
2023/01/11 09:23:44;;;;;;;15.20;3.10;;;;;;;;;;5021729;28;20501;-78
2023/01/11 09:26:11;;;;;;;13.02;2.67;;;;;;;;;;5031130;28;20482;-78
2023/01/11 09:28:37;;;;;;;14.27;2.65;;;;;;;;;;5033004;28;20138;-78
2023/01/11 09:31:03;;;;;;;12.25;2.97;;;;;;;;;;5034640;28;20078;-78
2023/01/11 09:33:29;;;;;;;12.32;2.90;;;;;;;;;;5052306;28;20052;-78
2023/01/11 09:35:57;;;;;;;16.17;2.78;;;;;;;;;;5034576;28;20053;-77
2023/01/11 09:38:28;;;;;;;14.38;2.90;;;;;;;;;;5054254;28;20065;-77
2023/01/11 09:41:07;;;;;;;11.38;2.83;;;;;;;;;;5056556;28;20041;-78
2023/01/11 09:43:38;;;;;;;14.07;2.63;;;;;;;;;;5038422;28;20045;-77
2023/01/11 09:46:07;;;;;;;16.10;2.97;;;;;;;;;;5038808;28;20056;-77
2023/01/11 09:48:35;;;;;;;14.85;2.60;;;;;;;;;;5056544;28;20102;-77
2023/01/11 09:51:01;;;;;;;11.90;2.67;;;;;;;;;;5056319;28;20095;-77
2023/01/11 09:53:37;;;;;;;9.88;2.55;;;;;;;;;;5055932;28;20055;-76
2023/01/11 09:56:05;;;;;;;11.07;2.47;;;;;;;;;;5056504;28;20122;-77
2023/01/11 09:58:56;;;;;;;12.07;2.97;;;;;;;;;;5038227;28;20452;-77
2023/01/11 10:01:24;;;;;;;10.70;3.28;;;;;;;;;;5054135;28;20048;-76
2023/01/11 10:04:02;;;;;;;9.15;2.22;;;;;;;;;;5056193;28;20067;-76
2023/01/11 10:06:43;;;;;;;13.93;2.50;;;8.00;99.90;;;;;;5038321;28;20053;-76
2023/01/11 10:09:16;;;;;;;9.07;2.55;;;18.60;99.90;;;;;;5017695;28;20049;-79
2023/01/11 10:12:09;;;;;;;10.55;2.67;;;19.30;99.90;;;;;;5045667;28;20049;-79
2023/01/11 10:14:47;;;;;;;10.00;2.70;;;20.00;99.90;;;;;;5022816;28;20067;-79
2023/01/11 10:17:27;;;;;;;12.20;2.45;;;20.20;99.90;;;;;;5047154;28;20095;-79
2023/01/11 10:20:22;;;;;;;8.90;2.35;;;19.10;99.90;;;;;;5030393;28;20497;-79
2023/01/11 10:22:51;;;;;;;13.88;2.85;;;19.90;99.90;;;;;;5015784;28;20128;-78
2023/01/11 10:25:24;;;;;;;9.48;2.33;;;20.90;99.90;;;;;;5018165;28;20057;-77
2023/01/11 10:27:59;;;;;;;8.75;2.35;;;21.70;99.90;;;;;;5036111;28;20092;-77
2023/01/11 10:40:14;;;;;;;10.32;2.42;;;22.90;99.90;;;;;;4965748;28;20403;-77
2023/01/11 10:42:55;;;;;;;8.10;2.58;;;23.00;98.40;;;;;;4954728;29;20084;-78
2023/01/11 10:45:50;;;;;;;9.57;2.08;;;22.90;99.80;;;;;;5032564;28;20050;-78
2023/01/11 10:48:26;;;;;;;11.27;2.20;;;21.60;99.00;;;;;;5040383;28;20096;-77
2023/01/11 10:50:56;;;;;;;8.80;2.63;;;20.60;99.90;;;;;;5048846;28;20049;-78
2023/01/11 10:53:47;;;;;;;11.98;2.50;;;20.30;99.90;;;;;;5017634;28;20044;-78
2023/01/11 10:56:22;;;;;;;8.90;2.40;;;19.50;99.90;;;;;;5001759;28;20048;-76
2023/01/11 10:58:52;;;;;;;12.48;2.70;;;18.70;99.90;;;;;;5055240;28;20049;-76
2023/01/11 11:01:31;;;;;;;9.70;2.55;;;;;;;;;;5054781;28;20477;-77
2023/01/11 11:04:09;;;;;;;12.45;3.00;;;;;;;;;;5053723;28;20060;-74
2023/01/11 11:06:40;;;;;;;9.88;2.63;;;;;;;;;;5055199;28;20124;-77
2023/01/11 11:09:23;;;;;;;17.33;3.50;;;;;;;;;;5054792;28;20436;-77
2023/01/11 11:11:59;;;;;;;10.85;2.88;;;;;;;;;;5054969;28;20048;-77
2023/01/11 11:14:38;;;;;;;13.30;3.00;;;;;;;;;;5053997;28;20514;-77
2023/01/11 11:17:13;;;;;;;11.40;2.42;;;;;;;;;;5052225;28;20037;-77
2023/01/11 11:19:39;;;;;;;11.73;2.50;;;;;;;;;;5054812;28;20508;-77
2023/01/11 11:22:06;;;;;;;10.77;2.53;;;;;;;;;;5054544;28;20092;-77
2023/01/11 11:24:45;;;;;;;15.05;3.10;;;;;;;;;;5054218;28;20441;-77
2023/01/11 11:27:14;;;;;;;11.85;2.88;;;;;;;;;;5036670;28;20049;-77
2023/01/11 11:29:41;;;;;;;14.77;3.15;;;;;;;;;;5053902;28;20053;-77
2023/01/11 11:32:14;;;;;;;12.38;2.67;;;;;;;;;;5034601;28;20044;-77
2023/01/11 11:34:45;;;;;;;12.10;3.10;;;;;;;;;;5035379;28;20036;-77
2023/01/11 11:37:19;;;;;;;14.80;3.20;;;;;;;;;;5034710;28;20051;-77
2023/01/11 11:39:47;;;;;;;16.42;2.75;;;;;;;;;;5054353;28;20053;-77
2023/01/11 11:42:17;;;;;;;14.70;3.10;;;;;;;;;;5054032;28;20043;-78
2023/01/11 11:44:43;;;;;;;16.00;3.33;;;;;;;;;;5053762;28;20136;-77
2023/01/11 11:47:15;;;;;;;16.10;3.17;;;;;;;;;;5053650;28;20523;-77
2023/01/11 11:49:42;;;;;;;13.20;2.78;;;;;;;;;;5035782;28;20056;-77
2023/01/11 11:52:16;;;;;;;14.13;3.30;;;;;;;;;;5053988;28;20413;-77
2023/01/11 11:54:49;;;;;;;18.48;3.65;;;;;;;;;;5035680;28;20055;-78
2023/01/11 11:57:16;;;;;;;14.35;3.05;;;;;;;;;;5019181;28;20140;-78
2023/01/11 11:59:47;;;;;;;17.80;3.55;;;;;;;;;;5036174;28;20078;-77
2023/01/11 12:02:20;;;;;;;12.93;3.00;;;;;;;;;;5053424;28;20110;-78
2023/01/11 12:04:48;;;;;;;17.08;3.03;;;;;;;;;;5053630;28;20041;-78
2023/01/11 12:07:15;;;;;;;17.05;3.25;;;;;;;;;;5036034;28;20072;-78
2023/01/11 12:10:02;;;;;;;17.60;2.85;;;;;;;;;;5036055;28;20568;-78
2023/01/11 12:12:28;;;;;;;16.13;2.85;;;;;;;;;;5035843;28;20040;-78
2023/01/11 12:15:13;;;;;;;17.00;3.17;;;;;;;;;;5019264;28;20049;-78
2023/01/11 12:17:39;;;;;;;13.32;3.17;;;;;;;;;;5047269;28;20128;-77
2023/01/11 12:20:38;;;;;;;19.60;3.85;;;;;;;;;;5015861;28;20095;-77
2023/01/11 12:23:15;;;;;;;14.07;2.65;;;;;;;;;;4971079;28;20549;-77
2023/01/11 12:25:48;;;;;;;14.05;3.35;;;;;;;;;;5015186;28;20046;-78
2023/01/11 12:28:24;;;;;;;19.05;3.97;;;;;;;;;;5015931;28;20037;-77
2023/01/11 12:31:08;;;;;;;17.92;3.20;;;;;;;;;;5015908;28;20049;-77
2023/01/11 12:33:34;;;;;;;14.63;3.45;;;;;;;;;;5033629;28;20180;-77
2023/01/11 12:36:00;;;;;;;12.05;2.80;;;;;;;;;;5030944;28;20048;-77
2023/01/11 12:38:29;;;;;;;13.07;2.92;;;;;;;;;;5032480;28;20041;-78
2023/01/11 12:41:08;;;;;;;19.92;3.40;;;;;;;;;;5016035;28;20124;-78
2023/01/11 12:43:37;;;;;;;20.58;3.63;;;;;;;;;;5033084;28;20044;-77
2023/01/11 12:46:18;;;;;;;15.07;3.33;;;;;;;;;;5030872;28;20568;-77
2023/01/11 12:48:52;;;;;;;14.48;3.40;;;;;;;;;;5032672;28;20088;-78
2023/01/11 12:51:24;;;;;;;17.00;3.50;;;;;;;;;;5015742;28;20056;-78
2023/01/11 12:54:05;;;;;;;17.88;3.20;;;;;;;;;;5015226;28;20128;-78
2023/01/11 12:56:38;;;;;;;15.00;2.63;;;;;;;;;;5032684;28;20041;-77
2023/01/11 12:59:22;;;;;;;17.63;4.22;;;;;;;;;;5013305;28;20448;-78
2023/01/11 13:01:57;;;;;;;18.00;3.20;;;;;;;;;;5031784;28;20061;-77
2023/01/11 13:04:42;;;;;;;14.32;3.33;;;;;;;;;;5032693;28;20042;-78
2023/01/11 13:07:27;;;;;;;16.35;3.28;;;;;;;;;;5015420;28;20053;-78
2023/01/11 13:10:10;;;;;;;16.90;3.17;;;;;;;;;;5032894;28;20405;-78
2023/01/11 13:12:46;;;;;;;22.08;3.95;;;;;;;;;;5014227;28;20049;-78
2023/01/11 13:15:12;;;;;;;;;;;;;;;;;;5032883;28;20172;-78
2023/01/11 13:17:41;;;;;;;23.85;3.80;;;;;;;;;;5020549;28;20015;-78
2023/01/11 13:20:16;;;;;;;12.98;2.78;;;;;;;;;;5034525;28;20070;-79
2023/01/11 13:22:52;;;;;;;22.00;3.78;;;;;;;;;;5034653;28;20045;-77
2023/01/11 13:25:29;;;;;;;18.98;3.85;;;;;;;;;;5034600;28;20101;-79
2023/01/11 13:27:56;;;;;;;16.65;3.50;;;;;;;;;;5052671;28;20049;-80
2023/01/11 13:30:23;;;;;;;23.60;3.85;;;;;;;;;;5052514;28;20486;-77
2023/01/11 13:33:03;;;;;;;19.08;3.92;;;;;;;;;;5034566;28;20159;-76
2023/01/11 13:35:48;;;;;;;20.60;3.67;;;;;;;;;;5016808;28;20564;-77
2023/01/11 13:38:14;;;;;;;16.75;3.85;;;;;;;;;;5052740;28;20076;-78
2023/01/11 13:40:49;;;;;;;23.23;4.88;;;;;;;;;;5052402;28;20033;-78
2023/01/11 13:43:38;;;;;;;17.33;3.90;;;;;;;;;;5052207;28;20048;-78
2023/01/11 13:46:16;;;;;;;21.83;4.15;;;;;;;;;;5032752;28;20056;-78
2023/01/11 13:48:44;;;;;;;19.23;4.25;;;;;;;;;;5017959;28;20053;-78
2023/01/11 13:51:22;;;;;;;19.23;3.53;;;;;;;;;;5052410;28;20443;-78
2023/01/11 13:53:56;;;;;;;19.92;3.42;;;;;;;;;;5034618;28;20128;-78
2023/01/11 13:56:27;;;;;;;16.25;3.25;;;;;;;;;;5017776;28;20057;-78
2023/01/11 13:58:53;;;;;;;16.65;3.10;;;;;;;;;;5052322;28;20052;-78
2023/01/11 14:01:25;;;;;;;24.42;3.65;;;;;;;;;;5018115;28;20525;-79
2023/01/11 14:03:54;;;;;;;16.50;3.95;;;;;;;;;;5052162;28;20409;-79
2023/01/11 14:06:40;;;;;;;17.45;3.30;;;;;;;;;;5034421;28;20037;-78
2023/01/11 14:09:23;;;;;;;22.92;3.70;;;;;;;;;;5052152;28;20417;-78
2023/01/11 14:11:49;;;;;;;18.17;3.22;;;;;;;;;;5051879;28;20056;-79
2023/01/11 14:14:30;;;;;;;21.73;3.33;;;;;;;;;;5051764;28;20045;-78
2023/01/11 14:17:06;;;;;;;15.85;3.60;;;;;;;;;;5033820;28;20550;-78
2023/01/11 14:19:39;;;;;;;21.70;3.22;;;;;;;;;;5034518;28;20406;-78
2023/01/11 14:22:10;;;;;;;20.95;3.42;;;;;;;;;;5051697;28;20539;-78
2023/01/11 14:24:38;;;;;;;24.63;4.43;;;;;;;;;;5035110;28;20489;-78
2023/01/11 14:27:13;;;;;;;22.98;4.40;;;;;;;;;;5055852;28;20053;-78
2023/01/11 14:29:57;;;;;;;20.45;4.35;;;;;;;;;;5037675;28;20045;-78
2023/01/11 14:32:42;;;;;;;15.73;3.60;;;;;;;;;;5031580;28;20052;-77
2023/01/11 14:35:08;;;;;;;20.80;3.55;;;;;;;;;;5023708;28;20170;-77
2023/01/11 14:37:53;;;;;;;17.85;3.97;;;;;;;;;;5036110;28;20123;-78
2023/01/11 14:40:37;;;;;;;22.27;3.88;;;;;;;;;;5037468;28;20045;-78
2023/01/11 14:43:21;;;;;;;26.95;4.60;;;;;;;;;;5038421;28;20130;-79
2023/01/11 14:46:04;;;;;;;19.58;3.97;;;;;;;;;;5055438;28;20064;-78
2023/01/11 14:48:43;;;;;;;19.52;3.67;;;;;;;;;;5037337;28;20052;-79
2023/01/11 14:51:45;;;;;;;20.33;3.72;;;;;;;;;;5049025;28;20049;-75
2023/01/11 14:54:14;;;;;;;20.60;3.80;;;;;;;;;;4973857;28;20050;-76
2023/01/11 14:56:43;;;;;;;20.65;4.90;;;;;;;;;;5026937;28;20107;-74
2023/01/11 14:59:28;;;;;;;19.70;3.85;;;;;;;;;;5039984;28;20053;-75
2023/01/11 15:02:03;;;;;;;15.85;3.85;;;;;;;;;;5037164;28;20067;-75
2023/01/11 15:04:34;;;;;;;19.05;3.67;;;;;;;;;;5020401;28;20505;-77
2023/01/11 15:07:00;;;;;;;19.92;3.97;;;;;;;;;;5037728;28;20048;-75
2023/01/11 15:09:46;;;;;;;19.92;4.30;;;;;;;;;;5055576;28;20048;-75
2023/01/11 15:12:31;;;;;;;17.52;4.00;;;;;;;;;;5036968;28;20152;-75
2023/01/11 15:15:02;;;;;;;19.45;4.38;;;;;;;;;;5055268;28;20156;-76
2023/01/11 15:20:15;;;;;;;16.27;4.20;;;;;;;;;;5022400;28;20088;-77
2023/01/11 15:22:41;;;;;;;26.95;4.03;;;;;;;;;;5017025;28;20045;-74